sensor_id;sensor_type;location;lat;lon;timestamp;temperature;humidity
72905;DHT22;61048;52.162;4.516;2022-08-26T00:02:08;24.40;64.00
72905;DHT22;61048;52.162;4.516;2022-08-26T00:04:35;24.40;64.00
72905;DHT22;61048;52.162;4.516;2022-08-26T00:07:02;24.40;64.10
72905;DHT22;61048;52.162;4.516;2022-08-26T00:09:29;24.40;63.90
72905;DHT22;61048;52.162;4.516;2022-08-26T00:11:57;24.50;63.80
72905;DHT22;61048;52.162;4.516;2022-08-26T00:14:25;24.40;63.90
72905;DHT22;61048;52.162;4.516;2022-08-26T00:16:53;24.50;63.90
72905;DHT22;61048;52.162;4.516;2022-08-26T00:19:20;24.40;63.90
72905;DHT22;61048;52.162;4.516;2022-08-26T00:21:48;24.40;64.00
72905;DHT22;61048;52.162;4.516;2022-08-26T00:24:15;24.40;64.00
72905;DHT22;61048;52.162;4.516;2022-08-26T00:26:42;24.40;64.00
72905;DHT22;61048;52.162;4.516;2022-08-26T00:29:09;24.50;63.80
72905;DHT22;61048;52.162;4.516;2022-08-26T00:31:38;24.50;63.70
72905;DHT22;61048;52.162;4.516;2022-08-26T00:34:04;24.50;63.80
72905;DHT22;61048;52.162;4.516;2022-08-26T00:36:31;24.60;63.80
72905;DHT22;61048;52.162;4.516;2022-08-26T00:38:58;24.60;63.80
72905;DHT22;61048;52.162;4.516;2022-08-26T00:41:25;24.60;63.80
72905;DHT22;61048;52.162;4.516;2022-08-26T00:43:53;24.60;63.80
72905;DHT22;61048;52.162;4.516;2022-08-26T00:46:22;24.60;63.80
72905;DHT22;61048;52.162;4.516;2022-08-26T00:48:59;24.60;63.80
72905;DHT22;61048;52.162;4.516;2022-08-26T00:51:28;24.70;63.80
72905;DHT22;61048;52.162;4.516;2022-08-26T00:53:59;24.70;63.80
72905;DHT22;61048;52.162;4.516;2022-08-26T00:56:30;24.70;63.80
72905;DHT22;61048;52.162;4.516;2022-08-26T00:59:02;24.70;63.70
72905;DHT22;61048;52.162;4.516;2022-08-26T01:01:31;24.70;63.80
72905;DHT22;61048;52.162;4.516;2022-08-26T01:03:59;24.70;63.80
72905;DHT22;61048;52.162;4.516;2022-08-26T01:06:26;24.70;63.80
72905;DHT22;61048;52.162;4.516;2022-08-26T01:08:53;24.80;63.80
72905;DHT22;61048;52.162;4.516;2022-08-26T01:11:21;24.80;63.70
72905;DHT22;61048;52.162;4.516;2022-08-26T01:13:50;24.80;63.70
72905;DHT22;61048;52.162;4.516;2022-08-26T01:16:18;24.80;63.60
72905;DHT22;61048;52.162;4.516;2022-08-26T01:18:44;24.80;63.80
72905;DHT22;61048;52.162;4.516;2022-08-26T01:21:17;24.80;63.60
72905;DHT22;61048;52.162;4.516;2022-08-26T01:23:50;24.80;63.60
72905;DHT22;61048;52.162;4.516;2022-08-26T01:26:20;24.80;63.60
72905;DHT22;61048;52.162;4.516;2022-08-26T01:28:49;24.80;63.60
72905;DHT22;61048;52.162;4.516;2022-08-26T01:31:19;24.80;63.60
72905;DHT22;61048;52.162;4.516;2022-08-26T01:33:53;24.90;63.60
72905;DHT22;61048;52.162;4.516;2022-08-26T01:36:21;24.90;63.50
72905;DHT22;61048;52.162;4.516;2022-08-26T01:38:50;24.90;63.50
72905;DHT22;61048;52.162;4.516;2022-08-26T01:41:18;24.90;63.40
72905;DHT22;61048;52.162;4.516;2022-08-26T01:43:47;24.90;63.40
72905;DHT22;61048;52.162;4.516;2022-08-26T01:46:16;24.90;63.20
72905;DHT22;61048;52.162;4.516;2022-08-26T01:48:45;24.90;63.30
72905;DHT22;61048;52.162;4.516;2022-08-26T01:51:12;24.90;63.40
72905;DHT22;61048;52.162;4.516;2022-08-26T01:53:40;24.90;63.20
72905;DHT22;61048;52.162;4.516;2022-08-26T01:56:09;24.90;63.30
72905;DHT22;61048;52.162;4.516;2022-08-26T01:58:42;24.90;63.30
72905;DHT22;61048;52.162;4.516;2022-08-26T02:01:11;24.90;63.20
72905;DHT22;61048;52.162;4.516;2022-08-26T02:03:44;24.90;63.20
72905;DHT22;61048;52.162;4.516;2022-08-26T02:06:15;24.90;63.20
72905;DHT22;61048;52.162;4.516;2022-08-26T02:08:46;24.90;63.20
72905;DHT22;61048;52.162;4.516;2022-08-26T02:11:15;24.90;63.00
72905;DHT22;61048;52.162;4.516;2022-08-26T02:13:47;24.90;63.20
72905;DHT22;61048;52.162;4.516;2022-08-26T02:16:16;24.90;63.20
72905;DHT22;61048;52.162;4.516;2022-08-26T02:18:46;24.90;63.30
72905;DHT22;61048;52.162;4.516;2022-08-26T02:21:14;24.90;63.20
72905;DHT22;61048;52.162;4.516;2022-08-26T02:23:42;24.90;63.30
72905;DHT22;61048;52.162;4.516;2022-08-26T02:26:11;25.00;63.20
72905;DHT22;61048;52.162;4.516;2022-08-26T02:28:43;25.00;63.20
72905;DHT22;61048;52.162;4.516;2022-08-26T02:31:12;25.00;63.10
72905;DHT22;61048;52.162;4.516;2022-08-26T02:33:38;25.00;63.20
72905;DHT22;61048;52.162;4.516;2022-08-26T02:36:05;25.00;63.00
72905;DHT22;61048;52.162;4.516;2022-08-26T02:38:33;25.00;63.20
72905;DHT22;61048;52.162;4.516;2022-08-26T02:41:00;25.00;63.00
72905;DHT22;61048;52.162;4.516;2022-08-26T02:43:27;25.00;63.10
72905;DHT22;61048;52.162;4.516;2022-08-26T02:45:56;25.00;62.90
72905;DHT22;61048;52.162;4.516;2022-08-26T02:48:23;25.00;62.90
72905;DHT22;61048;52.162;4.516;2022-08-26T02:50:50;25.00;63.20
72905;DHT22;61048;52.162;4.516;2022-08-26T02:53:16;25.00;63.00
72905;DHT22;61048;52.162;4.516;2022-08-26T02:55:45;25.00;63.10
72905;DHT22;61048;52.162;4.516;2022-08-26T02:58:14;25.00;63.10
72905;DHT22;61048;52.162;4.516;2022-08-26T03:00:41;25.00;63.10
72905;DHT22;61048;52.162;4.516;2022-08-26T03:03:09;25.00;62.90
72905;DHT22;61048;52.162;4.516;2022-08-26T03:05:36;25.00;63.00
72905;DHT22;61048;52.162;4.516;2022-08-26T03:08:03;25.00;62.90
72905;DHT22;61048;52.162;4.516;2022-08-26T03:10:30;25.00;63.00
72905;DHT22;61048;52.162;4.516;2022-08-26T03:12:57;25.00;62.90
72905;DHT22;61048;52.162;4.516;2022-08-26T03:15:25;25.00;62.90
72905;DHT22;61048;52.162;4.516;2022-08-26T03:17:54;25.00;62.90
72905;DHT22;61048;52.162;4.516;2022-08-26T03:20:22;25.00;62.90
72905;DHT22;61048;52.162;4.516;2022-08-26T03:22:49;25.00;63.00
72905;DHT22;61048;52.162;4.516;2022-08-26T03:25:19;25.00;63.00
72905;DHT22;61048;52.162;4.516;2022-08-26T03:27:46;25.00;62.80
72905;DHT22;61048;52.162;4.516;2022-08-26T03:30:14;25.00;62.90
72905;DHT22;61048;52.162;4.516;2022-08-26T03:32:58;25.00;62.80
72905;DHT22;61048;52.162;4.516;2022-08-26T03:35:27;25.00;63.00
72905;DHT22;61048;52.162;4.516;2022-08-26T03:37:54;25.00;63.00
72905;DHT22;61048;52.162;4.516;2022-08-26T03:40:21;25.10;62.90
72905;DHT22;61048;52.162;4.516;2022-08-26T03:42:48;25.00;62.70
72905;DHT22;61048;52.162;4.516;2022-08-26T03:45:16;25.00;62.80
72905;DHT22;61048;52.162;4.516;2022-08-26T03:47:43;25.00;62.80
72905;DHT22;61048;52.162;4.516;2022-08-26T03:50:12;25.00;63.00
72905;DHT22;61048;52.162;4.516;2022-08-26T03:52:41;25.00;63.00
72905;DHT22;61048;52.162;4.516;2022-08-26T03:55:08;25.10;62.80
72905;DHT22;61048;52.162;4.516;2022-08-26T03:57:35;25.10;62.60
72905;DHT22;61048;52.162;4.516;2022-08-26T04:00:04;25.00;62.70
72905;DHT22;61048;52.162;4.516;2022-08-26T04:02:32;25.00;62.80
72905;DHT22;61048;52.162;4.516;2022-08-26T04:04:59;25.00;62.60
72905;DHT22;61048;52.162;4.516;2022-08-26T04:07:25;25.00;62.90
72905;DHT22;61048;52.162;4.516;2022-08-26T04:09:55;25.00;62.70
72905;DHT22;61048;52.162;4.516;2022-08-26T04:12:22;25.00;62.70
72905;DHT22;61048;52.162;4.516;2022-08-26T04:14:50;25.00;62.80
72905;DHT22;61048;52.162;4.516;2022-08-26T04:17:17;25.00;62.50
72905;DHT22;61048;52.162;4.516;2022-08-26T04:19:43;25.00;62.60
72905;DHT22;61048;52.162;4.516;2022-08-26T04:22:10;25.00;62.60
72905;DHT22;61048;52.162;4.516;2022-08-26T04:24:37;25.00;62.50
72905;DHT22;61048;52.162;4.516;2022-08-26T04:27:06;25.00;62.50
72905;DHT22;61048;52.162;4.516;2022-08-26T04:29:33;25.00;62.30
72905;DHT22;61048;52.162;4.516;2022-08-26T04:32:00;25.00;62.50
72905;DHT22;61048;52.162;4.516;2022-08-26T04:34:27;25.00;62.50
72905;DHT22;61048;52.162;4.516;2022-08-26T04:36:54;25.00;62.60
72905;DHT22;61048;52.162;4.516;2022-08-26T04:39:22;25.00;62.50
72905;DHT22;61048;52.162;4.516;2022-08-26T04:41:49;25.00;62.40
72905;DHT22;61048;52.162;4.516;2022-08-26T04:44:21;25.00;62.50
72905;DHT22;61048;52.162;4.516;2022-08-26T04:46:50;25.00;62.50
72905;DHT22;61048;52.162;4.516;2022-08-26T04:49:17;25.00;62.20
72905;DHT22;61048;52.162;4.516;2022-08-26T04:51:44;25.00;62.40
72905;DHT22;61048;52.162;4.516;2022-08-26T04:54:11;25.00;62.50
72905;DHT22;61048;52.162;4.516;2022-08-26T04:56:42;25.00;62.50
72905;DHT22;61048;52.162;4.516;2022-08-26T04:59:12;25.00;62.30
72905;DHT22;61048;52.162;4.516;2022-08-26T05:01:42;25.00;62.10
72905;DHT22;61048;52.162;4.516;2022-08-26T05:04:09;25.00;62.20
72905;DHT22;61048;52.162;4.516;2022-08-26T05:06:36;25.00;62.30
72905;DHT22;61048;52.162;4.516;2022-08-26T05:09:04;25.00;62.40
72905;DHT22;61048;52.162;4.516;2022-08-26T05:11:31;25.00;62.30
72905;DHT22;61048;52.162;4.516;2022-08-26T05:13:58;25.00;62.30
72905;DHT22;61048;52.162;4.516;2022-08-26T05:16:26;25.00;62.30
72905;DHT22;61048;52.162;4.516;2022-08-26T05:18:54;25.00;62.30
72905;DHT22;61048;52.162;4.516;2022-08-26T05:21:24;25.00;62.40
72905;DHT22;61048;52.162;4.516;2022-08-26T05:23:51;25.00;62.50
72905;DHT22;61048;52.162;4.516;2022-08-26T05:26:20;25.00;62.00
72905;DHT22;61048;52.162;4.516;2022-08-26T05:28:46;25.00;62.10
72905;DHT22;61048;52.162;4.516;2022-08-26T05:31:15;25.00;62.30
72905;DHT22;61048;52.162;4.516;2022-08-26T05:33:43;25.00;62.20
72905;DHT22;61048;52.162;4.516;2022-08-26T05:36:14;25.00;62.30
72905;DHT22;61048;52.162;4.516;2022-08-26T05:38:41;25.00;62.10
72905;DHT22;61048;52.162;4.516;2022-08-26T05:41:17;25.00;62.20
72905;DHT22;61048;52.162;4.516;2022-08-26T05:43:44;25.00;62.20
72905;DHT22;61048;52.162;4.516;2022-08-26T05:46:11;25.00;61.90
72905;DHT22;61048;52.162;4.516;2022-08-26T05:48:39;25.00;61.90
72905;DHT22;61048;52.162;4.516;2022-08-26T05:51:07;25.00;61.60
72905;DHT22;61048;52.162;4.516;2022-08-26T05:53:37;24.90;61.80
72905;DHT22;61048;52.162;4.516;2022-08-26T05:56:06;25.00;61.70
72905;DHT22;61048;52.162;4.516;2022-08-26T05:58:34;24.90;61.90
72905;DHT22;61048;52.162;4.516;2022-08-26T06:01:03;24.90;61.80
72905;DHT22;61048;52.162;4.516;2022-08-26T06:03:32;25.00;61.70
72905;DHT22;61048;52.162;4.516;2022-08-26T06:06:02;25.00;61.80
72905;DHT22;61048;52.162;4.516;2022-08-26T06:08:29;25.00;61.80
72905;DHT22;61048;52.162;4.516;2022-08-26T06:11:01;25.00;61.80
72905;DHT22;61048;52.162;4.516;2022-08-26T06:13:29;25.00;61.80
72905;DHT22;61048;52.162;4.516;2022-08-26T06:15:56;25.00;61.60
72905;DHT22;61048;52.162;4.516;2022-08-26T06:18:26;25.00;61.40
72905;DHT22;61048;52.162;4.516;2022-08-26T06:21:00;25.00;61.40
72905;DHT22;61048;52.162;4.516;2022-08-26T06:23:28;25.00;61.50
72905;DHT22;61048;52.162;4.516;2022-08-26T06:26:15;25.00;61.60
72905;DHT22;61048;52.162;4.516;2022-08-26T06:28:42;25.10;62.30
72905;DHT22;61048;52.162;4.516;2022-08-26T06:31:10;25.10;63.20
72905;DHT22;61048;52.162;4.516;2022-08-26T06:33:37;25.10;61.90
72905;DHT22;61048;52.162;4.516;2022-08-26T06:36:05;25.10;59.70
72905;DHT22;61048;52.162;4.516;2022-08-26T06:38:32;25.10;62.40
72905;DHT22;61048;52.162;4.516;2022-08-26T06:40:59;25.00;62.80
72905;DHT22;61048;52.162;4.516;2022-08-26T06:43:27;25.00;62.40
72905;DHT22;61048;52.162;4.516;2022-08-26T06:46:02;25.00;63.10
72905;DHT22;61048;52.162;4.516;2022-08-26T06:48:29;25.10;63.10
72905;DHT22;61048;52.162;4.516;2022-08-26T06:51:04;25.10;62.80
72905;DHT22;61048;52.162;4.516;2022-08-26T06:53:31;25.10;62.40
72905;DHT22;61048;52.162;4.516;2022-08-26T06:55:58;25.10;62.40
72905;DHT22;61048;52.162;4.516;2022-08-26T06:58:24;25.20;62.00
72905;DHT22;61048;52.162;4.516;2022-08-26T07:00:53;25.20;62.30
72905;DHT22;61048;52.162;4.516;2022-08-26T07:03:19;25.20;62.30
72905;DHT22;61048;52.162;4.516;2022-08-26T07:05:47;25.10;60.20
72905;DHT22;61048;52.162;4.516;2022-08-26T07:08:14;25.10;61.30
72905;DHT22;61048;52.162;4.516;2022-08-26T07:10:41;25.10;61.60
72905;DHT22;61048;52.162;4.516;2022-08-26T07:13:08;25.10;61.10
72905;DHT22;61048;52.162;4.516;2022-08-26T07:15:38;25.10;60.60
72905;DHT22;61048;52.162;4.516;2022-08-26T07:18:06;25.00;60.50
72905;DHT22;61048;52.162;4.516;2022-08-26T07:20:36;25.00;61.30
72905;DHT22;61048;52.162;4.516;2022-08-26T07:23:04;25.00;61.40
72905;DHT22;61048;52.162;4.516;2022-08-26T07:25:31;25.00;60.20
72905;DHT22;61048;52.162;4.516;2022-08-26T07:27:58;25.00;60.00
72905;DHT22;61048;52.162;4.516;2022-08-26T07:30:25;25.00;60.10
72905;DHT22;61048;52.162;4.516;2022-08-26T07:32:55;24.90;60.40
72905;DHT22;61048;52.162;4.516;2022-08-26T07:35:24;25.00;60.60
72905;DHT22;61048;52.162;4.516;2022-08-26T07:37:51;24.90;60.80
72905;DHT22;61048;52.162;4.516;2022-08-26T07:40:18;24.90;60.70
72905;DHT22;61048;52.162;4.516;2022-08-26T07:42:45;24.80;60.70
72905;DHT22;61048;52.162;4.516;2022-08-26T07:45:12;24.80;60.30
72905;DHT22;61048;52.162;4.516;2022-08-26T07:47:38;24.80;60.30
72905;DHT22;61048;52.162;4.516;2022-08-26T07:50:06;24.80;59.80
72905;DHT22;61048;52.162;4.516;2022-08-26T07:52:34;24.80;59.50
72905;DHT22;61048;52.162;4.516;2022-08-26T07:55:04;24.80;59.40
72905;DHT22;61048;52.162;4.516;2022-08-26T07:57:32;24.70;59.30
72905;DHT22;61048;52.162;4.516;2022-08-26T08:00:00;24.70;59.00
72905;DHT22;61048;52.162;4.516;2022-08-26T08:02:28;24.70;59.30
72905;DHT22;61048;52.162;4.516;2022-08-26T08:04:55;24.70;59.30
72905;DHT22;61048;52.162;4.516;2022-08-26T08:07:22;24.70;59.00
72905;DHT22;61048;52.162;4.516;2022-08-26T08:09:51;24.70;59.00
72905;DHT22;61048;52.162;4.516;2022-08-26T08:12:18;24.70;58.80
72905;DHT22;61048;52.162;4.516;2022-08-26T08:14:45;24.70;58.80
72905;DHT22;61048;52.162;4.516;2022-08-26T08:17:13;24.70;58.60
72905;DHT22;61048;52.162;4.516;2022-08-26T08:19:40;24.60;58.50
72905;DHT22;61048;52.162;4.516;2022-08-26T08:22:07;24.60;58.30
72905;DHT22;61048;52.162;4.516;2022-08-26T08:24:34;24.60;58.50
72905;DHT22;61048;52.162;4.516;2022-08-26T08:27:04;24.50;58.00
72905;DHT22;61048;52.162;4.516;2022-08-26T08:29:31;24.50;58.50
72905;DHT22;61048;52.162;4.516;2022-08-26T08:31:58;24.50;58.30
72905;DHT22;61048;52.162;4.516;2022-08-26T08:34:26;24.50;58.50
72905;DHT22;61048;52.162;4.516;2022-08-26T08:36:54;24.60;58.20
72905;DHT22;61048;52.162;4.516;2022-08-26T08:39:21;24.70;58.10
72905;DHT22;61048;52.162;4.516;2022-08-26T08:41:57;24.60;58.10
72905;DHT22;61048;52.162;4.516;2022-08-26T08:44:33;24.70;58.20
72905;DHT22;61048;52.162;4.516;2022-08-26T08:47:04;24.60;57.90
72905;DHT22;61048;52.162;4.516;2022-08-26T08:49:34;24.50;57.70
72905;DHT22;61048;52.162;4.516;2022-08-26T08:52:03;24.60;58.30
72905;DHT22;61048;52.162;4.516;2022-08-26T08:54:32;24.60;58.50
72905;DHT22;61048;52.162;4.516;2022-08-26T08:57:05;24.70;58.00
72905;DHT22;61048;52.162;4.516;2022-08-26T08:59:42;24.70;57.90
72905;DHT22;61048;52.162;4.516;2022-08-26T09:02:17;24.60;58.00
72905;DHT22;61048;52.162;4.516;2022-08-26T09:05:01;24.60;57.50
72905;DHT22;61048;52.162;4.516;2022-08-26T09:07:33;24.60;57.80
72905;DHT22;61048;52.162;4.516;2022-08-26T09:10:03;24.60;57.90
72905;DHT22;61048;52.162;4.516;2022-08-26T09:12:32;24.60;58.00
72905;DHT22;61048;52.162;4.516;2022-08-26T09:15:04;24.60;58.00
72905;DHT22;61048;52.162;4.516;2022-08-26T09:17:40;24.70;58.00
72905;DHT22;61048;52.162;4.516;2022-08-26T09:20:16;24.70;58.00
72905;DHT22;61048;52.162;4.516;2022-08-26T09:22:45;24.70;58.10
72905;DHT22;61048;52.162;4.516;2022-08-26T09:25:14;24.80;57.70
72905;DHT22;61048;52.162;4.516;2022-08-26T09:27:44;24.60;57.70
72905;DHT22;61048;52.162;4.516;2022-08-26T09:30:15;24.60;58.00
72905;DHT22;61048;52.162;4.516;2022-08-26T09:32:56;24.60;58.10
72905;DHT22;61048;52.162;4.516;2022-08-26T09:35:31;24.60;57.90
72905;DHT22;61048;52.162;4.516;2022-08-26T09:37:59;24.70;57.90
72905;DHT22;61048;52.162;4.516;2022-08-26T09:40:29;24.60;57.60
72905;DHT22;61048;52.162;4.516;2022-08-26T09:43:10;24.60;57.80
72905;DHT22;61048;52.162;4.516;2022-08-26T09:45:41;24.60;58.00
72905;DHT22;61048;52.162;4.516;2022-08-26T09:48:09;24.60;57.80
72905;DHT22;61048;52.162;4.516;2022-08-26T09:50:38;24.60;57.60
72905;DHT22;61048;52.162;4.516;2022-08-26T09:53:08;24.60;57.80
72905;DHT22;61048;52.162;4.516;2022-08-26T09:55:41;24.60;57.70
72905;DHT22;61048;52.162;4.516;2022-08-26T09:58:12;24.60;57.60
72905;DHT22;61048;52.162;4.516;2022-08-26T10:00:51;24.60;57.50
72905;DHT22;61048;52.162;4.516;2022-08-26T10:03:24;24.60;57.40
72905;DHT22;61048;52.162;4.516;2022-08-26T10:05:56;24.60;57.20
72905;DHT22;61048;52.162;4.516;2022-08-26T10:08:28;24.60;57.10
72905;DHT22;61048;52.162;4.516;2022-08-26T10:10:56;24.60;57.10
72905;DHT22;61048;52.162;4.516;2022-08-26T10:13:27;24.60;56.90
72905;DHT22;61048;52.162;4.516;2022-08-26T10:16:15;24.60;56.90
72905;DHT22;61048;52.162;4.516;2022-08-26T10:18:48;24.60;56.80
72905;DHT22;61048;52.162;4.516;2022-08-26T10:21:22;24.70;56.70
72905;DHT22;61048;52.162;4.516;2022-08-26T10:23:52;24.70;56.60
72905;DHT22;61048;52.162;4.516;2022-08-26T10:26:24;24.70;56.50
72905;DHT22;61048;52.162;4.516;2022-08-26T10:28:55;24.70;56.50
72905;DHT22;61048;52.162;4.516;2022-08-26T10:31:32;24.70;56.10
72905;DHT22;61048;52.162;4.516;2022-08-26T10:34:00;24.70;56.30
72905;DHT22;61048;52.162;4.516;2022-08-26T10:36:31;24.70;56.30
72905;DHT22;61048;52.162;4.516;2022-08-26T10:39:19;24.80;56.20
72905;DHT22;61048;52.162;4.516;2022-08-26T10:41:48;24.80;56.10
72905;DHT22;61048;52.162;4.516;2022-08-26T10:44:17;24.80;56.00
72905;DHT22;61048;52.162;4.516;2022-08-26T10:46:50;24.80;55.70
72905;DHT22;61048;52.162;4.516;2022-08-26T10:49:19;24.80;55.80
72905;DHT22;61048;52.162;4.516;2022-08-26T10:51:53;24.80;55.90
72905;DHT22;61048;52.162;4.516;2022-08-26T10:54:27;24.80;55.80
72905;DHT22;61048;52.162;4.516;2022-08-26T10:57:00;24.80;55.60
72905;DHT22;61048;52.162;4.516;2022-08-26T10:59:38;24.90;55.50
72905;DHT22;61048;52.162;4.516;2022-08-26T11:02:14;25.00;55.30
72905;DHT22;61048;52.162;4.516;2022-08-26T11:04:48;25.00;55.20
72905;DHT22;61048;52.162;4.516;2022-08-26T11:07:38;25.00;55.20
72905;DHT22;61048;52.162;4.516;2022-08-26T11:10:10;25.10;55.00
72905;DHT22;61048;52.162;4.516;2022-08-26T11:12:53;25.10;54.80
72905;DHT22;61048;52.162;4.516;2022-08-26T11:15:55;25.10;54.60
72905;DHT22;61048;52.162;4.516;2022-08-26T11:18:42;25.10;54.20
72905;DHT22;61048;52.162;4.516;2022-08-26T11:21:48;25.10;54.50
72905;DHT22;61048;52.162;4.516;2022-08-26T11:24:38;25.10;54.40
72905;DHT22;61048;52.162;4.516;2022-08-26T11:27:06;25.10;54.90
72905;DHT22;61048;52.162;4.516;2022-08-26T11:29:56;25.10;54.40
72905;DHT22;61048;52.162;4.516;2022-08-26T11:32:44;25.20;54.40
72905;DHT22;61048;52.162;4.516;2022-08-26T11:35:47;25.20;54.00
72905;DHT22;61048;52.162;4.516;2022-08-26T11:38:19;25.30;53.60
72905;DHT22;61048;52.162;4.516;2022-08-26T11:41:05;25.30;53.70
72905;DHT22;61048;52.162;4.516;2022-08-26T11:43:33;25.30;53.50
72905;DHT22;61048;52.162;4.516;2022-08-26T11:46:03;25.20;53.60
72905;DHT22;61048;52.162;4.516;2022-08-26T11:48:32;25.20;53.50
72905;DHT22;61048;52.162;4.516;2022-08-26T11:51:02;25.10;53.60
72905;DHT22;61048;52.162;4.516;2022-08-26T11:53:31;25.10;53.30
72905;DHT22;61048;52.162;4.516;2022-08-26T11:56:00;25.10;53.20
72905;DHT22;61048;52.162;4.516;2022-08-26T11:58:29;25.10;53.30
72905;DHT22;61048;52.162;4.516;2022-08-26T12:00:59;25.20;53.40
72905;DHT22;61048;52.162;4.516;2022-08-26T12:03:34;25.20;53.40
72905;DHT22;61048;52.162;4.516;2022-08-26T12:06:16;25.20;53.30
72905;DHT22;61048;52.162;4.516;2022-08-26T12:08:47;25.20;53.10
72905;DHT22;61048;52.162;4.516;2022-08-26T12:11:21;25.20;52.80
72905;DHT22;61048;52.162;4.516;2022-08-26T12:13:55;25.30;52.80
72905;DHT22;61048;52.162;4.516;2022-08-26T12:16:25;25.30;53.00
72905;DHT22;61048;52.162;4.516;2022-08-26T12:18:52;25.40;52.80
72905;DHT22;61048;52.162;4.516;2022-08-26T12:21:23;25.40;52.40
72905;DHT22;61048;52.162;4.516;2022-08-26T12:23:52;25.50;52.90
72905;DHT22;61048;52.162;4.516;2022-08-26T12:26:23;25.50;52.40
72905;DHT22;61048;52.162;4.516;2022-08-26T12:28:53;25.50;52.10
72905;DHT22;61048;52.162;4.516;2022-08-26T12:31:24;25.50;52.20
72905;DHT22;61048;52.162;4.516;2022-08-26T12:33:52;25.40;52.90
72905;DHT22;61048;52.162;4.516;2022-08-26T12:36:23;25.50;52.20
72905;DHT22;61048;52.162;4.516;2022-08-26T12:38:52;25.40;52.60
72905;DHT22;61048;52.162;4.516;2022-08-26T12:41:47;25.40;52.50
72905;DHT22;61048;52.162;4.516;2022-08-26T12:44:34;25.30;52.30
72905;DHT22;61048;52.162;4.516;2022-08-26T12:47:10;25.30;52.30
72905;DHT22;61048;52.162;4.516;2022-08-26T12:49:38;25.30;52.50
72905;DHT22;61048;52.162;4.516;2022-08-26T12:52:20;25.20;52.50
72905;DHT22;61048;52.162;4.516;2022-08-26T12:54:55;25.10;52.40
72905;DHT22;61048;52.162;4.516;2022-08-26T12:57:27;25.10;52.70
72905;DHT22;61048;52.162;4.516;2022-08-26T13:02:36;25.10;52.60
72905;DHT22;61048;52.162;4.516;2022-08-26T13:05:04;25.20;52.40
72905;DHT22;61048;52.162;4.516;2022-08-26T13:07:32;25.30;52.90
72905;DHT22;61048;52.162;4.516;2022-08-26T13:09:59;25.30;52.70
72905;DHT22;61048;52.162;4.516;2022-08-26T13:12:29;25.20;52.20
72905;DHT22;61048;52.162;4.516;2022-08-26T13:14:57;25.20;52.20
72905;DHT22;61048;52.162;4.516;2022-08-26T13:17:25;25.20;52.20
72905;DHT22;61048;52.162;4.516;2022-08-26T13:19:52;25.10;52.20
72905;DHT22;61048;52.162;4.516;2022-08-26T13:22:21;25.10;52.40
72905;DHT22;61048;52.162;4.516;2022-08-26T13:24:52;25.10;52.40
72905;DHT22;61048;52.162;4.516;2022-08-26T13:27:22;25.20;51.90
72905;DHT22;61048;52.162;4.516;2022-08-26T13:29:50;25.20;52.20
72905;DHT22;61048;52.162;4.516;2022-08-26T13:32:18;25.20;52.30
72905;DHT22;61048;52.162;4.516;2022-08-26T13:34:48;25.30;51.70
72905;DHT22;61048;52.162;4.516;2022-08-26T13:37:15;25.20;52.50
72905;DHT22;61048;52.162;4.516;2022-08-26T13:39:44;25.30;52.20
72905;DHT22;61048;52.162;4.516;2022-08-26T13:42:13;25.20;52.10
72905;DHT22;61048;52.162;4.516;2022-08-26T13:44:40;25.30;52.30
72905;DHT22;61048;52.162;4.516;2022-08-26T13:47:08;25.20;52.10
72905;DHT22;61048;52.162;4.516;2022-08-26T13:49:35;25.30;52.20
72905;DHT22;61048;52.162;4.516;2022-08-26T13:52:03;25.30;51.70
72905;DHT22;61048;52.162;4.516;2022-08-26T13:54:30;25.40;51.50
72905;DHT22;61048;52.162;4.516;2022-08-26T13:56:57;25.40;51.30
72905;DHT22;61048;52.162;4.516;2022-08-26T13:59:25;25.40;51.20
72905;DHT22;61048;52.162;4.516;2022-08-26T14:01:52;25.40;51.00
72905;DHT22;61048;52.162;4.516;2022-08-26T14:04:19;25.40;51.70
72905;DHT22;61048;52.162;4.516;2022-08-26T14:06:46;25.40;51.00
72905;DHT22;61048;52.162;4.516;2022-08-26T14:09:13;25.40;51.80
72905;DHT22;61048;52.162;4.516;2022-08-26T14:11:39;25.30;51.50
72905;DHT22;61048;52.162;4.516;2022-08-26T14:14:06;25.20;51.60
72905;DHT22;61048;52.162;4.516;2022-08-26T14:16:36;25.30;51.60
72905;DHT22;61048;52.162;4.516;2022-08-26T14:19:06;25.30;51.10
72905;DHT22;61048;52.162;4.516;2022-08-26T14:21:35;25.30;51.20
72905;DHT22;61048;52.162;4.516;2022-08-26T14:24:03;25.30;50.80
72905;DHT22;61048;52.162;4.516;2022-08-26T14:26:30;25.40;51.50
72905;DHT22;61048;52.162;4.516;2022-08-26T14:28:57;25.40;50.70
72905;DHT22;61048;52.162;4.516;2022-08-26T14:31:25;25.40;50.50
72905;DHT22;61048;52.162;4.516;2022-08-26T14:33:55;25.40;50.70
72905;DHT22;61048;52.162;4.516;2022-08-26T14:36:23;25.30;50.40
72905;DHT22;61048;52.162;4.516;2022-08-26T14:38:58;25.30;50.80
72905;DHT22;61048;52.162;4.516;2022-08-26T14:41:27;25.30;50.80
72905;DHT22;61048;52.162;4.516;2022-08-26T14:43:56;25.30;50.90
72905;DHT22;61048;52.162;4.516;2022-08-26T14:46:25;25.30;51.00
72905;DHT22;61048;52.162;4.516;2022-08-26T14:48:55;25.30;50.90
72905;DHT22;61048;52.162;4.516;2022-08-26T14:51:22;25.30;50.80
72905;DHT22;61048;52.162;4.516;2022-08-26T14:53:49;25.30;51.00
72905;DHT22;61048;52.162;4.516;2022-08-26T14:56:34;25.30;51.10
72905;DHT22;61048;52.162;4.516;2022-08-26T14:59:02;25.30;51.00
72905;DHT22;61048;52.162;4.516;2022-08-26T15:01:29;25.30;51.00
72905;DHT22;61048;52.162;4.516;2022-08-26T15:03:58;25.30;50.60
72905;DHT22;61048;52.162;4.516;2022-08-26T15:06:25;25.30;50.50
72905;DHT22;61048;52.162;4.516;2022-08-26T15:08:53;25.30;50.60
72905;DHT22;61048;52.162;4.516;2022-08-26T15:11:20;25.30;50.80
72905;DHT22;61048;52.162;4.516;2022-08-26T15:13:46;25.30;50.40
72905;DHT22;61048;52.162;4.516;2022-08-26T15:16:13;25.30;50.30
72905;DHT22;61048;52.162;4.516;2022-08-26T15:18:40;25.30;50.60
72905;DHT22;61048;52.162;4.516;2022-08-26T15:21:10;25.20;50.40
72905;DHT22;61048;52.162;4.516;2022-08-26T15:23:37;25.10;50.50
72905;DHT22;61048;52.162;4.516;2022-08-26T15:26:06;25.10;50.80
72905;DHT22;61048;52.162;4.516;2022-08-26T15:28:34;25.10;50.60
72905;DHT22;61048;52.162;4.516;2022-08-26T15:31:01;25.10;50.60
72905;DHT22;61048;52.162;4.516;2022-08-26T15:33:28;25.10;50.50
72905;DHT22;61048;52.162;4.516;2022-08-26T15:35:57;25.10;50.30
72905;DHT22;61048;52.162;4.516;2022-08-26T15:38:27;25.10;50.50
72905;DHT22;61048;52.162;4.516;2022-08-26T15:40:55;25.10;50.10
72905;DHT22;61048;52.162;4.516;2022-08-26T15:43:22;25.00;50.40
72905;DHT22;61048;52.162;4.516;2022-08-26T15:45:51;25.00;50.20
72905;DHT22;61048;52.162;4.516;2022-08-26T15:48:18;25.00;50.50
72905;DHT22;61048;52.162;4.516;2022-08-26T15:50:49;25.00;50.50